sensor_id;sensor_type;location;lat;lon;timestamp;pressure;altitude;pressure_sealevel;temperature;humidity
75549;BME280;64133;56.002;37.208;2023-11-21T00:01:05;98647.94;;;-9.60;71.00
75549;BME280;64133;56.002;37.208;2023-11-21T00:06:10;98648.98;;;-9.77;71.28
75549;BME280;64133;56.002;37.208;2023-11-21T00:11:15;98641.66;;;-9.68;71.13
75549;BME280;64133;56.002;37.208;2023-11-21T00:16:20;98635.52;;;-9.87;71.62
75549;BME280;64133;56.002;37.208;2023-11-21T00:21:25;98639.77;;;-9.87;71.67
75549;BME280;64133;56.002;37.208;2023-11-21T00:26:29;98637.31;;;-9.95;71.94
75549;BME280;64133;56.002;37.208;2023-11-21T00:31:35;98648.62;;;-9.84;71.72
75549;BME280;64133;56.002;37.208;2023-11-21T00:36:40;98647.91;;;-9.92;71.95
75549;BME280;64133;56.002;37.208;2023-11-21T00:41:45;98650.96;;;-10.00;71.88
75549;BME280;64133;56.002;37.208;2023-11-21T00:46:50;98651.83;;;-10.03;72.00
75549;BME280;64133;56.002;37.208;2023-11-21T00:51:55;98650.98;;;-10.03;72.12
75549;BME280;64133;56.002;37.208;2023-11-21T00:57:00;98654.88;;;-10.11;72.27
75549;BME280;64133;56.002;37.208;2023-11-21T01:02:05;98644.64;;;-10.06;72.64
75549;BME280;64133;56.002;37.208;2023-11-21T01:07:10;98644.59;;;-10.02;72.16
75549;BME280;64133;56.002;37.208;2023-11-21T01:12:14;98635.84;;;-10.14;71.95
75549;BME280;64133;56.002;37.208;2023-11-21T01:17:19;98622.95;;;-10.00;72.12
75549;BME280;64133;56.002;37.208;2023-11-21T01:22:24;98632.58;;;-10.25;71.55
75549;BME280;64133;56.002;37.208;2023-11-21T01:27:29;98633.70;;;-10.13;71.60
75549;BME280;64133;56.002;37.208;2023-11-21T01:32:34;98637.19;;;-10.22;71.65
75549;BME280;64133;56.002;37.208;2023-11-21T01:37:39;98638.52;;;-10.25;71.72
75549;BME280;64133;56.002;37.208;2023-11-21T01:42:44;98638.00;;;-10.18;71.72
75549;BME280;64133;56.002;37.208;2023-11-21T01:47:48;98639.68;;;-10.17;71.50
75549;BME280;64133;56.002;37.208;2023-11-21T01:52:53;98639.68;;;-10.17;71.50
75549;BME280;64133;56.002;37.208;2023-11-21T01:57:58;98644.45;;;-10.24;71.65
75549;BME280;64133;56.002;37.208;2023-11-21T02:03:03;98655.66;;;-10.42;71.83
75549;BME280;64133;56.002;37.208;2023-11-21T02:08:08;98644.16;;;-10.37;71.97
75549;BME280;64133;56.002;37.208;2023-11-21T02:13:13;98640.36;;;-10.39;72.92
75549;BME280;64133;56.002;37.208;2023-11-21T02:18:18;98633.59;;;-10.40;73.22
75549;BME280;64133;56.002;37.208;2023-11-21T02:23:23;98629.34;;;-10.40;73.43
75549;BME280;64133;56.002;37.208;2023-11-21T02:28:28;98631.05;;;-10.42;73.43
75549;BME280;64133;56.002;37.208;2023-11-21T02:33:33;98627.19;;;-10.35;73.69
75549;BME280;64133;56.002;37.208;2023-11-21T02:38:37;98639.09;;;-10.41;73.72
75549;BME280;64133;56.002;37.208;2023-11-21T02:43:42;98631.00;;;-10.37;74.00
75549;BME280;64133;56.002;37.208;2023-11-21T02:48:47;98636.54;;;-10.41;73.64
75549;BME280;64133;56.002;37.208;2023-11-21T02:53:52;98641.67;;;-10.45;73.66
75549;BME280;64133;56.002;37.208;2023-11-21T02:58:58;98646.27;;;-10.37;73.56
75549;BME280;64133;56.002;37.208;2023-11-21T03:04:02;98651.70;;;-10.28;73.53
75549;BME280;64133;56.002;37.208;2023-11-21T03:09:07;98652.52;;;-10.25;73.15
75549;BME280;64133;56.002;37.208;2023-11-21T03:14:12;98662.58;;;-10.14;73.08
75549;BME280;64133;56.002;37.208;2023-11-21T03:19:17;98654.67;;;-10.29;72.87
75549;BME280;64133;56.002;37.208;2023-11-21T03:24:22;98663.08;;;-10.24;72.59
75549;BME280;64133;56.002;37.208;2023-11-21T03:29:27;98660.10;;;-10.22;72.58
75549;BME280;64133;56.002;37.208;2023-11-21T03:34:32;98666.90;;;-10.22;72.56
75549;BME280;64133;56.002;37.208;2023-11-21T03:39:36;98668.94;;;-10.16;72.51
75549;BME280;64133;56.002;37.208;2023-11-21T03:44:41;98670.28;;;-10.23;72.11
75549;BME280;64133;56.002;37.208;2023-11-21T03:49:46;98664.81;;;-10.24;72.26
75549;BME280;64133;56.002;37.208;2023-11-21T03:54:51;98651.85;;;-10.04;72.54
75549;BME280;64133;56.002;37.208;2023-11-21T03:59:56;98662.62;;;-10.20;71.81
75549;BME280;64133;56.002;37.208;2023-11-21T04:05:01;98671.08;;;-10.17;71.93
75549;BME280;64133;56.002;37.208;2023-11-21T04:10:07;98669.06;;;-10.25;71.85
75549;BME280;64133;56.002;37.208;2023-11-21T04:15:12;98671.05;;;-10.15;71.88
75549;BME280;64133;56.002;37.208;2023-11-21T04:20:17;98673.50;;;-10.04;71.33
75549;BME280;64133;56.002;37.208;2023-11-21T04:25:22;98679.53;;;-10.13;71.57
75549;BME280;64133;56.002;37.208;2023-11-21T04:30:27;98687.53;;;-10.07;71.72
75549;BME280;64133;56.002;37.208;2023-11-21T04:35:32;98683.20;;;-9.99;71.75
75549;BME280;64133;56.002;37.208;2023-11-21T04:40:37;98687.78;;;-9.93;71.59
75549;BME280;64133;56.002;37.208;2023-11-21T04:45:43;98693.83;;;-10.00;71.63
75549;BME280;64133;56.002;37.208;2023-11-21T04:50:48;98697.66;;;-10.03;71.69
75549;BME280;64133;56.002;37.208;2023-11-21T04:55:52;98709.39;;;-9.87;71.48
75549;BME280;64133;56.002;37.208;2023-11-21T05:00:58;98709.41;;;-9.88;71.49
75549;BME280;64133;56.002;37.208;2023-11-21T05:06:03;98722.58;;;-9.90;71.85
75549;BME280;64133;56.002;37.208;2023-11-21T05:11:08;98711.12;;;-9.90;71.58
75549;BME280;64133;56.002;37.208;2023-11-21T05:16:13;98711.91;;;-9.83;71.55
75549;BME280;64133;56.002;37.208;2023-11-21T05:21:18;98722.50;;;-9.84;71.62
75549;BME280;64133;56.002;37.208;2023-11-21T05:26:23;98717.41;;;-9.82;71.42
75549;BME280;64133;56.002;37.208;2023-11-21T05:31:28;98717.06;;;-9.88;71.80
75549;BME280;64133;56.002;37.208;2023-11-21T05:36:33;98714.69;;;-9.66;71.56
75549;BME280;64133;56.002;37.208;2023-11-21T05:41:38;98721.16;;;-9.75;71.45
75549;BME280;64133;56.002;37.208;2023-11-21T05:46:43;98715.93;;;-9.64;71.16
75549;BME280;64133;56.002;37.208;2023-11-21T05:51:48;98704.59;;;-9.75;71.72
75549;BME280;64133;56.002;37.208;2023-11-21T05:56:53;98704.03;;;-9.64;71.27
75549;BME280;64133;56.002;37.208;2023-11-21T06:01:57;98711.08;;;-9.48;71.28
75549;BME280;64133;56.002;37.208;2023-11-21T06:07:02;98711.48;;;-9.47;71.46
75549;BME280;64133;56.002;37.208;2023-11-21T06:12:09;98730.25;;;-9.52;71.21
75549;BME280;64133;56.002;37.208;2023-11-21T06:17:13;98722.57;;;-9.51;71.49
75549;BME280;64133;56.002;37.208;2023-11-21T06:22:18;98727.29;;;-9.55;71.33
75549;BME280;64133;56.002;37.208;2023-11-21T06:27:23;98717.88;;;-9.50;71.65
75549;BME280;64133;56.002;37.208;2023-11-21T06:32:28;98717.91;;;-9.51;71.79
75549;BME280;64133;56.002;37.208;2023-11-21T06:37:34;98721.00;;;-9.63;71.80
75549;BME280;64133;56.002;37.208;2023-11-21T06:42:39;98714.31;;;-9.35;71.94
75549;BME280;64133;56.002;37.208;2023-11-21T06:47:44;98734.94;;;-9.55;71.80
75549;BME280;64133;56.002;37.208;2023-11-21T06:52:49;98726.94;;;-9.62;72.00
75549;BME280;64133;56.002;37.208;2023-11-21T06:57:54;98724.73;;;-9.55;72.44
75549;BME280;64133;56.002;37.208;2023-11-21T07:02:58;98726.63;;;-9.36;72.37
75549;BME280;64133;56.002;37.208;2023-11-21T07:08:03;98730.80;;;-9.29;71.98
75549;BME280;64133;56.002;37.208;2023-11-21T07:13:08;98731.14;;;-9.23;71.98
75549;BME280;64133;56.002;37.208;2023-11-21T07:18:13;98729.95;;;-9.29;71.97
75549;BME280;64133;56.002;37.208;2023-11-21T07:23:18;98734.81;;;-9.11;71.94
75549;BME280;64133;56.002;37.208;2023-11-21T07:28:23;98734.27;;;-9.34;72.06
75549;BME280;64133;56.002;37.208;2023-11-21T07:33:28;98731.36;;;-9.07;71.97
75549;BME280;64133;56.002;37.208;2023-11-21T07:38:33;98734.16;;;-8.94;71.55
75549;BME280;64133;56.002;37.208;2023-11-21T07:43:38;98736.14;;;-8.82;72.21
75549;BME280;64133;56.002;37.208;2023-11-21T07:48:43;98742.71;;;-8.98;71.91
75549;BME280;64133;56.002;37.208;2023-11-21T07:53:48;98741.88;;;-8.68;71.92
75549;BME280;64133;56.002;37.208;2023-11-21T07:58:53;98751.01;;;-8.82;71.41
75549;BME280;64133;56.002;37.208;2023-11-21T08:03:58;98748.63;;;-8.64;71.56
75549;BME280;64133;56.002;37.208;2023-11-21T08:09:03;98751.69;;;-8.42;71.45
75549;BME280;64133;56.002;37.208;2023-11-21T08:14:08;98737.42;;;-8.04;70.85
75549;BME280;64133;56.002;37.208;2023-11-21T08:19:13;98740.62;;;-7.93;70.58
75549;BME280;64133;56.002;37.208;2023-11-21T08:24:18;98709.63;;;-7.99;69.88
75549;BME280;64133;56.002;37.208;2023-11-21T08:29:22;98728.77;;;-8.21;69.91
75549;BME280;64133;56.002;37.208;2023-11-21T08:34:27;98715.75;;;-8.07;69.30
75549;BME280;64133;56.002;37.208;2023-11-21T08:39:32;98714.55;;;-8.12;68.93
75549;BME280;64133;56.002;37.208;2023-11-21T08:44:37;98718.51;;;-8.18;68.50
75549;BME280;64133;56.002;37.208;2023-11-21T08:49:43;98710.37;;;-8.16;69.02
75549;BME280;64133;56.002;37.208;2023-11-21T08:54:48;98719.35;;;-8.19;68.77
75549;BME280;64133;56.002;37.208;2023-11-21T08:59:53;98715.36;;;-8.10;69.06
75549;BME280;64133;56.002;37.208;2023-11-21T09:04:58;98723.81;;;-8.06;68.21
75549;BME280;64133;56.002;37.208;2023-11-21T09:10:03;98720.98;;;-8.14;68.47
75549;BME280;64133;56.002;37.208;2023-11-21T09:15:09;98715.39;;;-8.12;68.69
75549;BME280;64133;56.002;37.208;2023-11-21T09:20:14;98722.73;;;-8.17;68.52
75549;BME280;64133;56.002;37.208;2023-11-21T09:25:19;98721.11;;;-8.23;68.18
75549;BME280;64133;56.002;37.208;2023-11-21T09:30:24;98733.67;;;-8.09;68.01
75549;BME280;64133;56.002;37.208;2023-11-21T09:35:29;98735.31;;;-8.05;68.33
75549;BME280;64133;56.002;37.208;2023-11-21T09:40:34;98739.30;;;-8.16;68.12
75549;BME280;64133;56.002;37.208;2023-11-21T09:45:39;98747.72;;;-8.09;67.97
75549;BME280;64133;56.002;37.208;2023-11-21T09:50:44;98748.64;;;-8.13;68.20
75549;BME280;64133;56.002;37.208;2023-11-21T09:55:49;98751.59;;;-8.12;68.08
75549;BME280;64133;56.002;37.208;2023-11-21T10:00:55;98748.48;;;-8.05;67.97
75549;BME280;64133;56.002;37.208;2023-11-21T10:05:59;98754.75;;;-7.98;67.63
75549;BME280;64133;56.002;37.208;2023-11-21T10:11:04;98757.02;;;-8.32;67.39
75549;BME280;64133;56.002;37.208;2023-11-21T10:16:10;98757.45;;;-8.32;68.88
75549;BME280;64133;56.002;37.208;2023-11-21T10:21:15;98756.54;;;-8.27;67.30
75549;BME280;64133;56.002;37.208;2023-11-21T10:26:20;98761.28;;;-8.32;67.36
75549;BME280;64133;56.002;37.208;2023-11-21T10:31:25;98768.45;;;-8.02;67.10
75549;BME280;64133;56.002;37.208;2023-11-21T10:36:30;98767.48;;;-8.20;67.56
75549;BME280;64133;56.002;37.208;2023-11-21T10:41:35;98779.81;;;-8.18;67.46
75549;BME280;64133;56.002;37.208;2023-11-21T10:46:40;98776.08;;;-7.99;67.64
75549;BME280;64133;56.002;37.208;2023-11-21T10:51:45;98782.77;;;-8.19;67.32
75549;BME280;64133;56.002;37.208;2023-11-21T10:56:52;98775.39;;;-8.10;66.85
75549;BME280;64133;56.002;37.208;2023-11-21T11:01:56;98781.09;;;-8.18;66.52
75549;BME280;64133;56.002;37.208;2023-11-21T11:07:02;98775.81;;;-8.35;66.24
75549;BME280;64133;56.002;37.208;2023-11-21T11:12:06;98776.13;;;-8.29;66.57
75549;BME280;64133;56.002;37.208;2023-11-21T11:17:11;98786.75;;;-8.26;66.85
75549;BME280;64133;56.002;37.208;2023-11-21T11:27:28;98777.41;;;-8.29;67.71
75549;BME280;64133;56.002;37.208;2023-11-21T11:32:35;98773.03;;;-8.21;67.19
75549;BME280;64133;56.002;37.208;2023-11-21T11:37:39;98783.94;;;-8.37;66.91
75549;BME280;64133;56.002;37.208;2023-11-21T11:42:57;98788.58;;;-8.35;68.57
75549;BME280;64133;56.002;37.208;2023-11-21T11:48:05;98795.58;;;-8.20;68.73
75549;BME280;64133;56.002;37.208;2023-11-21T11:53:14;98795.91;;;-8.13;68.00
75549;BME280;64133;56.002;37.208;2023-11-21T11:58:19;98802.11;;;-8.29;67.78
75549;BME280;64133;56.002;37.208;2023-11-21T12:03:24;98800.14;;;-8.12;67.58
75549;BME280;64133;56.002;37.208;2023-11-21T12:08:29;98814.84;;;-8.26;67.43
75549;BME280;64133;56.002;37.208;2023-11-21T12:13:33;98810.72;;;-8.08;67.50
75549;BME280;64133;56.002;37.208;2023-11-21T12:18:38;98809.23;;;-8.21;67.29
75549;BME280;64133;56.002;37.208;2023-11-21T12:23:43;98815.14;;;-8.19;66.62
75549;BME280;64133;56.002;37.208;2023-11-21T12:28:54;98814.08;;;-8.06;66.51
75549;BME280;64133;56.002;37.208;2023-11-21T12:33:59;98827.62;;;-8.26;66.04
75549;BME280;64133;56.002;37.208;2023-11-21T12:39:04;98828.70;;;-8.40;66.44
75549;BME280;64133;56.002;37.208;2023-11-21T12:44:12;98824.63;;;-8.27;66.61
75549;BME280;64133;56.002;37.208;2023-11-21T12:49:17;98830.64;;;-8.30;66.09
75549;BME280;64133;56.002;37.208;2023-11-21T12:54:22;98824.06;;;-8.43;66.18
75549;BME280;64133;56.002;37.208;2023-11-21T12:59:27;98834.72;;;-8.45;66.29
75549;BME280;64133;56.002;37.208;2023-11-21T13:04:33;98838.84;;;-8.37;65.94
75549;BME280;64133;56.002;37.208;2023-11-21T13:09:39;98844.77;;;-8.36;65.61
75549;BME280;64133;56.002;37.208;2023-11-21T13:14:43;98840.42;;;-8.58;65.99
75549;BME280;64133;56.002;37.208;2023-11-21T13:19:48;98848.32;;;-8.45;66.32
75549;BME280;64133;56.002;37.208;2023-11-21T13:24:53;98852.72;;;-8.53;66.77
75549;BME280;64133;56.002;37.208;2023-11-21T13:29:58;98866.02;;;-8.61;67.05
75549;BME280;64133;56.002;37.208;2023-11-21T13:35:04;98855.70;;;-8.55;66.81
75549;BME280;64133;56.002;37.208;2023-11-21T13:40:10;98847.67;;;-8.59;66.55
75549;BME280;64133;56.002;37.208;2023-11-21T13:45:20;98845.19;;;-8.64;66.43
75549;BME280;64133;56.002;37.208;2023-11-21T13:50:26;98858.35;;;-8.63;66.49
75549;BME280;64133;56.002;37.208;2023-11-21T13:55:31;98850.41;;;-8.73;66.71
75549;BME280;64133;56.002;37.208;2023-11-21T14:00:36;98855.48;;;-8.70;66.67
75549;BME280;64133;56.002;37.208;2023-11-21T14:05:46;98869.95;;;-8.72;66.80
75549;BME280;64133;56.002;37.208;2023-11-21T14:10:50;98863.86;;;-8.60;66.62
75549;BME280;64133;56.002;37.208;2023-11-21T14:15:55;98867.29;;;-8.61;66.67
75549;BME280;64133;56.002;37.208;2023-11-21T14:21:02;98877.56;;;-8.67;66.80
75549;BME280;64133;56.002;37.208;2023-11-21T14:26:10;98874.91;;;-8.59;67.11
75549;BME280;64133;56.002;37.208;2023-11-21T14:31:15;98878.40;;;-8.65;67.39
75549;BME280;64133;56.002;37.208;2023-11-21T14:36:22;98874.45;;;-8.56;67.67
75549;BME280;64133;56.002;37.208;2023-11-21T14:41:25;98891.97;;;-8.63;67.48
75549;BME280;64133;56.002;37.208;2023-11-21T14:46:30;98903.63;;;-8.77;67.65
75549;BME280;64133;56.002;37.208;2023-11-21T14:51:43;98903.25;;;-8.81;68.12
75549;BME280;64133;56.002;37.208;2023-11-21T14:56:49;98911.26;;;-8.75;67.95
75549;BME280;64133;56.002;37.208;2023-11-21T15:01:55;98907.67;;;-8.57;68.02
75549;BME280;64133;56.002;37.208;2023-11-21T15:07:00;98918.05;;;-8.73;67.94
75549;BME280;64133;56.002;37.208;2023-11-21T15:12:06;98926.44;;;-8.63;68.00
75549;BME280;64133;56.002;37.208;2023-11-21T15:17:16;98942.76;;;-8.75;67.76
75549;BME280;64133;56.002;37.208;2023-11-21T15:22:21;98942.81;;;-8.81;67.62
75549;BME280;64133;56.002;37.208;2023-11-21T15:27:26;98942.78;;;-8.79;67.77
75549;BME280;64133;56.002;37.208;2023-11-21T15:32:32;98948.81;;;-8.83;67.58
75549;BME280;64133;56.002;37.208;2023-11-21T15:37:37;98933.92;;;-8.86;67.96
75549;BME280;64133;56.002;37.208;2023-11-21T15:42:42;98940.28;;;-8.82;67.56
75549;BME280;64133;56.002;37.208;2023-11-21T15:47:47;98934.72;;;-8.80;67.73
75549;BME280;64133;56.002;37.208;2023-11-21T15:52:51;98941.09;;;-8.79;67.44
75549;BME280;64133;56.002;37.208;2023-11-21T15:57:57;98934.39;;;-8.89;67.27
75549;BME280;64133;56.002;37.208;2023-11-21T16:03:02;98940.28;;;-8.82;67.33
75549;BME280;64133;56.002;37.208;2023-11-21T16:08:07;98927.60;;;-8.90;67.65
75549;BME280;64133;56.002;37.208;2023-11-21T16:13:11;98933.90;;;-8.84;67.49
75549;BME280;64133;56.002;37.208;2023-11-21T16:18:17;98943.21;;;-8.80;67.48
75549;BME280;64133;56.002;37.208;2023-11-21T16:23:22;98935.28;;;-8.93;67.83
75549;BME280;64133;56.002;37.208;2023-11-21T16:28:27;98938.22;;;-8.88;67.98
75549;BME280;64133;56.002;37.208;2023-11-21T16:33:32;98936.53;;;-8.90;68.04
75549;BME280;64133;56.002;37.208;2023-11-21T16:38:37;98936.68;;;-9.04;68.39
75549;BME280;64133;56.002;37.208;2023-11-21T16:43:42;98942.55;;;-8.96;68.62
75549;BME280;64133;56.002;37.208;2023-11-21T16:48:50;98953.23;;;-9.01;68.35
75549;BME280;64133;56.002;37.208;2023-11-21T16:59:13;98923.73;;;-9.26;68.90
75549;BME280;64133;56.002;37.208;2023-11-21T17:04:18;98934.85;;;-9.37;68.82
75549;BME280;64133;56.002;37.208;2023-11-21T17:09:23;98955.80;;;-9.05;69.21
75549;BME280;64133;56.002;37.208;2023-11-21T17:14:28;98961.91;;;-9.20;69.10
75549;BME280;64133;56.002;37.208;2023-11-21T17:19:33;98960.23;;;-9.21;69.31
75549;BME280;64133;56.002;37.208;2023-11-21T17:24:38;98952.66;;;-9.30;69.78
75549;BME280;64133;56.002;37.208;2023-11-21T17:29:43;98942.42;;;-9.26;70.13
75549;BME280;64133;56.002;37.208;2023-11-21T17:34:51;98943.73;;;-9.30;70.02
75549;BME280;64133;56.002;37.208;2023-11-21T17:39:56;98941.97;;;-9.22;69.75
75549;BME280;64133;56.002;37.208;2023-11-21T17:45:01;98953.48;;;-9.28;70.01
75549;BME280;64133;56.002;37.208;2023-11-21T17:50:07;98954.34;;;-9.29;70.52
75549;BME280;64133;56.002;37.208;2023-11-21T17:55:12;98951.39;;;-9.30;70.39
75549;BME280;64133;56.002;37.208;2023-11-21T18:00:18;98958.27;;;-9.42;70.50
75549;BME280;64133;56.002;37.208;2023-11-21T18:05:23;98956.09;;;-9.34;70.58
75549;BME280;64133;56.002;37.208;2023-11-21T18:10:28;98962.11;;;-9.40;70.62
75549;BME280;64133;56.002;37.208;2023-11-21T18:15:33;98962.96;;;-9.43;70.90
75549;BME280;64133;56.002;37.208;2023-11-21T18:20:38;98966.78;;;-9.43;70.73
75549;BME280;64133;56.002;37.208;2023-11-21T18:25:44;98965.09;;;-9.44;71.13
75549;BME280;64133;56.002;37.208;2023-11-21T18:30:49;98966.06;;;-9.57;71.09
75549;BME280;64133;56.002;37.208;2023-11-21T18:35:54;98963.11;;;-9.63;71.37
75549;BME280;64133;56.002;37.208;2023-11-21T18:41:02;98967.79;;;-9.64;71.57
75549;BME280;64133;56.002;37.208;2023-11-21T18:46:05;98968.20;;;-9.63;71.43
75549;BME280;64133;56.002;37.208;2023-11-21T18:51:10;98970.40;;;-9.70;71.73
75549;BME280;64133;56.002;37.208;2023-11-21T18:56:21;98962.23;;;-9.58;71.66
75549;BME280;64133;56.002;37.208;2023-11-21T19:01:28;98958.89;;;-9.65;71.44
75549;BME280;64133;56.002;37.208;2023-11-21T19:06:32;98959.80;;;-9.75;71.75
75549;BME280;64133;56.002;37.208;2023-11-21T19:11:37;98968.30;;;-9.73;71.48
75549;BME280;64133;56.002;37.208;2023-11-21T19:16:43;98969.18;;;-9.80;71.72
75549;BME280;64133;56.002;37.208;2023-11-21T19:21:51;98981.99;;;-9.88;72.05
75549;BME280;64133;56.002;37.208;2023-11-21T19:26:56;98987.87;;;-9.78;72.38
75549;BME280;64133;56.002;37.208;2023-11-21T19:32:01;98985.81;;;-9.88;72.26
75549;BME280;64133;56.002;37.208;2023-11-21T19:37:06;98986.22;;;-9.87;72.35
75549;BME280;64133;56.002;37.208;2023-11-21T19:42:11;98987.86;;;-9.80;72.50
75549;BME280;64133;56.002;37.208;2023-11-21T19:47:16;98987.47;;;-9.85;72.29
75549;BME280;64133;56.002;37.208;2023-11-21T19:52:21;98993.48;;;-9.97;72.72
75549;BME280;64133;56.002;37.208;2023-11-21T19:57:26;98987.08;;;-9.90;72.52
75549;BME280;64133;56.002;37.208;2023-11-21T20:02:33;98986.73;;;-10.03;72.84
75549;BME280;64133;56.002;37.208;2023-11-21T20:07:38;98982.89;;;-9.97;73.19
75549;BME280;64133;56.002;37.208;2023-11-21T20:12:43;98992.64;;;-9.98;72.93
75549;BME280;64133;56.002;37.208;2023-11-21T20:17:48;98992.20;;;-9.97;73.07
75549;BME280;64133;56.002;37.208;2023-11-21T20:22:53;98997.69;;;-9.87;73.03
75549;BME280;64133;56.002;37.208;2023-11-21T20:27:58;98993.44;;;-9.87;73.06
75549;BME280;64133;56.002;37.208;2023-11-21T20:33:03;98998.62;;;-10.06;73.48
75549;BME280;64133;56.002;37.208;2023-11-21T20:38:08;99004.11;;;-9.96;73.76
75549;BME280;64133;56.002;37.208;2023-11-21T20:43:14;99007.12;;;-10.07;73.81
75549;BME280;64133;56.002;37.208;2023-11-21T20:48:19;99006.25;;;-10.00;74.05
75549;BME280;64133;56.002;37.208;2023-11-21T20:53:24;99009.64;;;-9.97;74.05
75549;BME280;64133;56.002;37.208;2023-11-21T20:58:29;99004.91;;;-9.93;73.98
75549;BME280;64133;56.002;37.208;2023-11-21T21:03:34;99007.02;;;-9.89;74.00
75549;BME280;64133;56.002;37.208;2023-11-21T21:08:39;99011.22;;;-9.80;73.80
75549;BME280;64133;56.002;37.208;2023-11-21T21:13:44;99014.62;;;-9.81;73.94
75549;BME280;64133;56.002;37.208;2023-11-21T21:18:48;99021.84;;;-9.81;73.89
75549;BME280;64133;56.002;37.208;2023-11-21T21:23:54;99028.67;;;-9.89;74.13
75549;BME280;64133;56.002;37.208;2023-11-21T21:28:58;99024.81;;;-9.78;74.24
75549;BME280;64133;56.002;37.208;2023-11-21T21:34:03;99024.41;;;-9.82;74.58
75549;BME280;64133;56.002;37.208;2023-11-21T21:39:08;99020.98;;;-9.78;74.46
75549;BME280;64133;56.002;37.208;2023-11-21T21:44:14;99015.09;;;-9.87;74.45
75549;BME280;64133;56.002;37.208;2023-11-21T21:49:19;99022.22;;;-9.75;74.81
75549;BME280;64133;56.002;37.208;2023-11-21T21:54:24;99020.58;;;-9.79;74.54
75549;BME280;64133;56.002;37.208;2023-11-21T21:59:29;99024.36;;;-9.76;74.94
75549;BME280;64133;56.002;37.208;2023-11-21T22:04:34;99031.98;;;-9.70;74.58
75549;BME280;64133;56.002;37.208;2023-11-21T22:09:39;99022.16;;;-9.62;74.61
75549;BME280;64133;56.002;37.208;2023-11-21T22:14:44;99023.36;;;-9.54;74.66
75549;BME280;64133;56.002;37.208;2023-11-21T22:19:49;99018.20;;;-9.43;74.63
75549;BME280;64133;56.002;37.208;2023-11-21T22:24:54;99028.41;;;-9.46;74.68
75549;BME280;64133;56.002;37.208;2023-11-21T22:29:59;99021.52;;;-9.30;74.61
75549;BME280;64133;56.002;37.208;2023-11-21T22:35:04;99026.95;;;-9.20;74.45
75549;BME280;64133;56.002;37.208;2023-11-21T22:40:10;99020.96;;;-9.16;74.16
75549;BME280;64133;56.002;37.208;2023-11-21T22:45:15;99027.48;;;-9.31;74.06
75549;BME280;64133;56.002;37.208;2023-11-21T22:50:20;99028.27;;;-9.28;73.83
75549;BME280;64133;56.002;37.208;2023-11-21T22:55:25;99040.97;;;-9.20;74.07
75549;BME280;64133;56.002;37.208;2023-11-21T23:00:30;99033.73;;;-9.18;73.94
75549;BME280;64133;56.002;37.208;2023-11-21T23:05:35;99031.66;;;-9.23;74.31
75549;BME280;64133;56.002;37.208;2023-11-21T23:10:40;99034.55;;;-9.13;74.08
75549;BME280;64133;56.002;37.208;2023-11-21T23:15:45;99044.72;;;-9.11;74.12
75549;BME280;64133;56.002;37.208;2023-11-21T23:20:50;99039.54;;;-9.02;74.04
75549;BME280;64133;56.002;37.208;2023-11-21T23:25:55;99041.27;;;-9.05;73.81
75549;BME280;64133;56.002;37.208;2023-11-21T23:30:59;99048.98;;;-9.12;73.79
75549;BME280;64133;56.002;37.208;2023-11-21T23:36:08;99045.19;;;-9.16;74.04
75549;BME280;64133;56.002;37.208;2023-11-21T23:41:13;99041.74;;;-9.09;74.17
75549;BME280;64133;56.002;37.208;2023-11-21T23:46:17;99047.27;;;-9.11;74.43
75549;BME280;64133;56.002;37.208;2023-11-21T23:51:22;99047.57;;;-8.95;74.11
75549;BME280;64133;56.002;37.208;2023-11-21T23:56:27;99044.62;;;-8.99;74.32
